sensor_id;sensor_type;location;lat;lon;timestamp;P1;durP1;ratioP1;P2;durP2;ratioP2
16828;SDS011;8531;48.078;11.968;2023-03-01T00:01:19;15.27;;;11.43;;
16828;SDS011;8531;48.078;11.968;2023-03-01T00:03:46;15.30;;;11.57;;
16828;SDS011;8531;48.078;11.968;2023-03-01T00:06:12;15.73;;;11.73;;
16828;SDS011;8531;48.078;11.968;2023-03-01T00:08:38;15.17;;;11.13;;
16828;SDS011;8531;48.078;11.968;2023-03-01T00:13:44;15.50;;;11.60;;
16828;SDS011;8531;48.078;11.968;2023-03-01T00:16:12;14.47;;;11.13;;
16828;SDS011;8531;48.078;11.968;2023-03-01T00:18:40;13.67;;;11.03;;
16828;SDS011;8531;48.078;11.968;2023-03-01T00:21:06;16.30;;;12.07;;
16828;SDS011;8531;48.078;11.968;2023-03-01T00:23:35;13.57;;;10.30;;
16828;SDS011;8531;48.078;11.968;2023-03-01T00:26:02;15.70;;;11.00;;
16828;SDS011;8531;48.078;11.968;2023-03-01T00:28:31;14.57;;;11.03;;
16828;SDS011;8531;48.078;11.968;2023-03-01T00:31:02;16.63;;;12.23;;
16828;SDS011;8531;48.078;11.968;2023-03-01T00:33:29;14.07;;;11.27;;
16828;SDS011;8531;48.078;11.968;2023-03-01T00:35:57;14.90;;;11.27;;
16828;SDS011;8531;48.078;11.968;2023-03-01T00:38:23;20.67;;;12.00;;
16828;SDS011;8531;48.078;11.968;2023-03-01T00:40:49;16.40;;;12.43;;
16828;SDS011;8531;48.078;11.968;2023-03-01T00:43:15;16.77;;;11.57;;
16828;SDS011;8531;48.078;11.968;2023-03-01T00:45:40;16.73;;;11.30;;
16828;SDS011;8531;48.078;11.968;2023-03-01T00:48:06;16.00;;;11.70;;
16828;SDS011;8531;48.078;11.968;2023-03-01T00:50:31;14.87;;;10.97;;
16828;SDS011;8531;48.078;11.968;2023-03-01T00:52:57;16.40;;;11.37;;
16828;SDS011;8531;48.078;11.968;2023-03-01T00:55:23;16.13;;;11.90;;
16828;SDS011;8531;48.078;11.968;2023-03-01T00:57:49;14.77;;;11.97;;
16828;SDS011;8531;48.078;11.968;2023-03-01T01:00:15;16.53;;;11.53;;
16828;SDS011;8531;48.078;11.968;2023-03-01T01:02:41;15.77;;;12.20;;
16828;SDS011;8531;48.078;11.968;2023-03-01T01:05:07;16.47;;;12.13;;
16828;SDS011;8531;48.078;11.968;2023-03-01T01:07:33;15.10;;;11.60;;
16828;SDS011;8531;48.078;11.968;2023-03-01T01:09:59;16.60;;;11.83;;
16828;SDS011;8531;48.078;11.968;2023-03-01T01:12:25;16.13;;;11.80;;
16828;SDS011;8531;48.078;11.968;2023-03-01T01:14:50;18.90;;;12.10;;
16828;SDS011;8531;48.078;11.968;2023-03-01T01:17:16;15.50;;;11.23;;
16828;SDS011;8531;48.078;11.968;2023-03-01T01:19:42;14.97;;;10.97;;
16828;SDS011;8531;48.078;11.968;2023-03-01T01:22:08;16.13;;;11.87;;
16828;SDS011;8531;48.078;11.968;2023-03-01T01:24:34;18.63;;;12.10;;
16828;SDS011;8531;48.078;11.968;2023-03-01T01:27:00;17.50;;;11.70;;
16828;SDS011;8531;48.078;11.968;2023-03-01T01:29:25;14.13;;;11.73;;
16828;SDS011;8531;48.078;11.968;2023-03-01T01:31:51;15.80;;;11.07;;
16828;SDS011;8531;48.078;11.968;2023-03-01T01:34:18;16.50;;;11.83;;
16828;SDS011;8531;48.078;11.968;2023-03-01T01:36:49;15.50;;;11.53;;
16828;SDS011;8531;48.078;11.968;2023-03-01T01:39:19;13.53;;;10.57;;
16828;SDS011;8531;48.078;11.968;2023-03-01T01:41:45;14.87;;;11.50;;
16828;SDS011;8531;48.078;11.968;2023-03-01T01:52:07;13.97;;;10.97;;
16828;SDS011;8531;48.078;11.968;2023-03-01T01:54:44;14.43;;;12.03;;
16828;SDS011;8531;48.078;11.968;2023-03-01T01:57:12;19.40;;;11.47;;
16828;SDS011;8531;48.078;11.968;2023-03-01T01:59:43;14.80;;;11.27;;
16828;SDS011;8531;48.078;11.968;2023-03-01T02:02:13;16.33;;;11.90;;
16828;SDS011;8531;48.078;11.968;2023-03-01T02:04:39;16.57;;;11.87;;
16828;SDS011;8531;48.078;11.968;2023-03-01T02:07:07;15.30;;;11.80;;
16828;SDS011;8531;48.078;11.968;2023-03-01T02:09:46;14.83;;;11.20;;
16828;SDS011;8531;48.078;11.968;2023-03-01T02:12:16;15.60;;;11.30;;
16828;SDS011;8531;48.078;11.968;2023-03-01T02:14:44;16.27;;;12.27;;
16828;SDS011;8531;48.078;11.968;2023-03-01T02:17:11;16.00;;;12.20;;
16828;SDS011;8531;48.078;11.968;2023-03-01T02:19:46;14.93;;;11.90;;
16828;SDS011;8531;48.078;11.968;2023-03-01T02:22:39;17.43;;;12.60;;
16828;SDS011;8531;48.078;11.968;2023-03-01T02:28:02;15.93;;;11.60;;
16828;SDS011;8531;48.078;11.968;2023-03-01T02:30:30;16.50;;;10.73;;
16828;SDS011;8531;48.078;11.968;2023-03-01T02:32:57;15.50;;;11.37;;
16828;SDS011;8531;48.078;11.968;2023-03-01T02:35:27;14.50;;;11.97;;
16828;SDS011;8531;48.078;11.968;2023-03-01T02:37:59;18.97;;;11.97;;
16828;SDS011;8531;48.078;11.968;2023-03-01T02:40:27;18.20;;;11.90;;
16828;SDS011;8531;48.078;11.968;2023-03-01T02:42:56;14.27;;;11.27;;
16828;SDS011;8531;48.078;11.968;2023-03-01T02:45:23;16.37;;;12.07;;
16828;SDS011;8531;48.078;11.968;2023-03-01T02:47:53;17.40;;;12.33;;
16828;SDS011;8531;48.078;11.968;2023-03-01T02:53:11;17.87;;;11.90;;
16828;SDS011;8531;48.078;11.968;2023-03-01T02:55:41;15.83;;;12.43;;
16828;SDS011;8531;48.078;11.968;2023-03-01T02:58:08;17.30;;;12.47;;
16828;SDS011;8531;48.078;11.968;2023-03-01T03:00:36;15.57;;;12.33;;
16828;SDS011;8531;48.078;11.968;2023-03-01T03:03:10;21.47;;;12.90;;
16828;SDS011;8531;48.078;11.968;2023-03-01T03:05:40;17.40;;;12.10;;
16828;SDS011;8531;48.078;11.968;2023-03-01T03:08:05;21.00;;;12.63;;
16828;SDS011;8531;48.078;11.968;2023-03-01T03:10:34;17.70;;;12.17;;
16828;SDS011;8531;48.078;11.968;2023-03-01T03:13:03;17.20;;;12.60;;
16828;SDS011;8531;48.078;11.968;2023-03-01T03:15:31;16.37;;;12.90;;
16828;SDS011;8531;48.078;11.968;2023-03-01T03:18:00;16.53;;;12.37;;
16828;SDS011;8531;48.078;11.968;2023-03-01T03:20:27;17.30;;;12.70;;
16828;SDS011;8531;48.078;11.968;2023-03-01T03:22:55;18.53;;;13.10;;
16828;SDS011;8531;48.078;11.968;2023-03-01T03:25:23;17.77;;;12.83;;
16828;SDS011;8531;48.078;11.968;2023-03-01T03:27:49;18.10;;;13.27;;
16828;SDS011;8531;48.078;11.968;2023-03-01T03:30:22;18.30;;;13.33;;
16828;SDS011;8531;48.078;11.968;2023-03-01T03:32:49;15.17;;;11.63;;
16828;SDS011;8531;48.078;11.968;2023-03-01T03:35:20;17.63;;;12.70;;
16828;SDS011;8531;48.078;11.968;2023-03-01T03:37:48;18.40;;;13.07;;
16828;SDS011;8531;48.078;11.968;2023-03-01T03:40:32;25.07;;;13.47;;
16828;SDS011;8531;48.078;11.968;2023-03-01T03:43:02;20.33;;;12.47;;
16828;SDS011;8531;48.078;11.968;2023-03-01T03:45:30;18.33;;;12.57;;
16828;SDS011;8531;48.078;11.968;2023-03-01T03:47:58;16.23;;;12.37;;
16828;SDS011;8531;48.078;11.968;2023-03-01T03:50:24;15.80;;;12.37;;
16828;SDS011;8531;48.078;11.968;2023-03-01T03:52:50;20.23;;;13.60;;
16828;SDS011;8531;48.078;11.968;2023-03-01T03:55:15;16.13;;;11.57;;
16828;SDS011;8531;48.078;11.968;2023-03-01T03:57:44;16.77;;;13.00;;
16828;SDS011;8531;48.078;11.968;2023-03-01T04:00:17;21.80;;;13.97;;
16828;SDS011;8531;48.078;11.968;2023-03-01T04:02:45;17.20;;;13.07;;
16828;SDS011;8531;48.078;11.968;2023-03-01T04:05:12;20.70;;;13.30;;
16828;SDS011;8531;48.078;11.968;2023-03-01T04:07:40;18.57;;;12.43;;
16828;SDS011;8531;48.078;11.968;2023-03-01T04:10:08;17.10;;;13.20;;
16828;SDS011;8531;48.078;11.968;2023-03-01T04:12:38;16.10;;;12.00;;
16828;SDS011;8531;48.078;11.968;2023-03-01T04:15:05;17.63;;;13.63;;
16828;SDS011;8531;48.078;11.968;2023-03-01T04:17:41;18.50;;;12.47;;
16828;SDS011;8531;48.078;11.968;2023-03-01T04:20:09;15.97;;;12.40;;
16828;SDS011;8531;48.078;11.968;2023-03-01T04:22:36;18.30;;;12.47;;
16828;SDS011;8531;48.078;11.968;2023-03-01T04:25:03;17.10;;;12.40;;
16828;SDS011;8531;48.078;11.968;2023-03-01T04:27:31;19.77;;;13.50;;
16828;SDS011;8531;48.078;11.968;2023-03-01T04:30:00;22.57;;;13.57;;
16828;SDS011;8531;48.078;11.968;2023-03-01T04:32:26;21.27;;;13.17;;
16828;SDS011;8531;48.078;11.968;2023-03-01T04:34:52;20.90;;;12.67;;
16828;SDS011;8531;48.078;11.968;2023-03-01T04:37:17;18.80;;;13.60;;
16828;SDS011;8531;48.078;11.968;2023-03-01T04:39:43;18.23;;;13.50;;
16828;SDS011;8531;48.078;11.968;2023-03-01T04:42:12;21.50;;;13.53;;
16828;SDS011;8531;48.078;11.968;2023-03-01T04:44:38;20.73;;;13.17;;
16828;SDS011;8531;48.078;11.968;2023-03-01T04:47:04;17.10;;;13.53;;
16828;SDS011;8531;48.078;11.968;2023-03-01T04:49:30;17.37;;;12.33;;
16828;SDS011;8531;48.078;11.968;2023-03-01T04:51:56;19.37;;;13.60;;
16828;SDS011;8531;48.078;11.968;2023-03-01T04:54:27;18.37;;;13.57;;
16828;SDS011;8531;48.078;11.968;2023-03-01T04:56:57;17.03;;;12.60;;
16828;SDS011;8531;48.078;11.968;2023-03-01T04:59:23;20.70;;;13.20;;
16828;SDS011;8531;48.078;11.968;2023-03-01T05:01:50;19.03;;;13.10;;
16828;SDS011;8531;48.078;11.968;2023-03-01T05:04:16;20.33;;;13.77;;
16828;SDS011;8531;48.078;11.968;2023-03-01T05:06:42;21.43;;;13.17;;
16828;SDS011;8531;48.078;11.968;2023-03-01T05:09:08;22.20;;;13.43;;
16828;SDS011;8531;48.078;11.968;2023-03-01T05:11:34;20.50;;;12.53;;
16828;SDS011;8531;48.078;11.968;2023-03-01T05:14:01;18.07;;;12.77;;
16828;SDS011;8531;48.078;11.968;2023-03-01T05:16:27;20.30;;;13.10;;
16828;SDS011;8531;48.078;11.968;2023-03-01T05:18:55;19.90;;;13.30;;
16828;SDS011;8531;48.078;11.968;2023-03-01T05:21:22;22.60;;;13.87;;
16828;SDS011;8531;48.078;11.968;2023-03-01T05:23:48;19.63;;;14.27;;
16828;SDS011;8531;48.078;11.968;2023-03-01T05:26:14;21.17;;;13.47;;
16828;SDS011;8531;48.078;11.968;2023-03-01T05:28:42;19.77;;;13.60;;
16828;SDS011;8531;48.078;11.968;2023-03-01T05:31:08;23.53;;;14.17;;
16828;SDS011;8531;48.078;11.968;2023-03-01T05:33:35;21.37;;;14.13;;
16828;SDS011;8531;48.078;11.968;2023-03-01T05:36:04;16.70;;;13.60;;
16828;SDS011;8531;48.078;11.968;2023-03-01T05:38:32;48.00;;;18.00;;
16828;SDS011;8531;48.078;11.968;2023-03-01T05:40:58;23.03;;;14.27;;
16828;SDS011;8531;48.078;11.968;2023-03-01T05:43:24;23.73;;;14.67;;
16828;SDS011;8531;48.078;11.968;2023-03-01T05:45:49;20.20;;;13.87;;
16828;SDS011;8531;48.078;11.968;2023-03-01T05:48:15;19.37;;;14.17;;
16828;SDS011;8531;48.078;11.968;2023-03-01T05:50:42;21.13;;;13.93;;
16828;SDS011;8531;48.078;11.968;2023-03-01T05:53:10;21.13;;;14.27;;
16828;SDS011;8531;48.078;11.968;2023-03-01T05:55:37;25.53;;;13.97;;
16828;SDS011;8531;48.078;11.968;2023-03-01T05:58:05;16.80;;;12.80;;
16828;SDS011;8531;48.078;11.968;2023-03-01T06:00:32;23.50;;;15.07;;
16828;SDS011;8531;48.078;11.968;2023-03-01T06:02:59;19.17;;;13.33;;
16828;SDS011;8531;48.078;11.968;2023-03-01T06:05:25;20.20;;;13.97;;
16828;SDS011;8531;48.078;11.968;2023-03-01T06:07:51;19.57;;;14.63;;
16828;SDS011;8531;48.078;11.968;2023-03-01T06:10:18;20.33;;;13.53;;
16828;SDS011;8531;48.078;11.968;2023-03-01T06:12:45;18.53;;;13.97;;
16828;SDS011;8531;48.078;11.968;2023-03-01T06:15:13;30.13;;;14.37;;
16828;SDS011;8531;48.078;11.968;2023-03-01T06:17:40;22.63;;;15.17;;
16828;SDS011;8531;48.078;11.968;2023-03-01T06:20:12;19.03;;;13.33;;
16828;SDS011;8531;48.078;11.968;2023-03-01T06:22:43;22.60;;;13.20;;
16828;SDS011;8531;48.078;11.968;2023-03-01T06:25:09;23.40;;;14.70;;
16828;SDS011;8531;48.078;11.968;2023-03-01T06:27:37;23.17;;;14.70;;
16828;SDS011;8531;48.078;11.968;2023-03-01T06:30:03;22.77;;;14.47;;
16828;SDS011;8531;48.078;11.968;2023-03-01T06:32:29;21.37;;;13.90;;
16828;SDS011;8531;48.078;11.968;2023-03-01T06:34:56;22.77;;;13.30;;
16828;SDS011;8531;48.078;11.968;2023-03-01T06:37:23;19.37;;;13.43;;
16828;SDS011;8531;48.078;11.968;2023-03-01T06:39:50;20.93;;;14.10;;
16828;SDS011;8531;48.078;11.968;2023-03-01T06:42:16;18.73;;;13.57;;
16828;SDS011;8531;48.078;11.968;2023-03-01T06:44:41;21.13;;;14.20;;
16828;SDS011;8531;48.078;11.968;2023-03-01T06:47:08;21.47;;;14.23;;
16828;SDS011;8531;48.078;11.968;2023-03-01T06:49:34;19.97;;;14.60;;
16828;SDS011;8531;48.078;11.968;2023-03-01T06:52:00;25.03;;;15.17;;
16828;SDS011;8531;48.078;11.968;2023-03-01T06:54:25;21.53;;;13.77;;
16828;SDS011;8531;48.078;11.968;2023-03-01T06:56:51;23.37;;;14.27;;
16828;SDS011;8531;48.078;11.968;2023-03-01T06:59:17;19.70;;;14.40;;
16828;SDS011;8531;48.078;11.968;2023-03-01T07:01:43;24.00;;;13.67;;
16828;SDS011;8531;48.078;11.968;2023-03-01T07:04:09;20.67;;;15.00;;
16828;SDS011;8531;48.078;11.968;2023-03-01T07:06:35;19.17;;;14.13;;
16828;SDS011;8531;48.078;11.968;2023-03-01T07:09:01;19.27;;;13.87;;
16828;SDS011;8531;48.078;11.968;2023-03-01T07:11:27;22.13;;;14.50;;
16828;SDS011;8531;48.078;11.968;2023-03-01T07:13:52;19.90;;;14.20;;
16828;SDS011;8531;48.078;11.968;2023-03-01T07:16:18;20.73;;;13.23;;
16828;SDS011;8531;48.078;11.968;2023-03-01T07:18:45;23.97;;;14.37;;
16828;SDS011;8531;48.078;11.968;2023-03-01T07:21:12;19.97;;;14.13;;
16828;SDS011;8531;48.078;11.968;2023-03-01T07:23:39;25.43;;;15.33;;
16828;SDS011;8531;48.078;11.968;2023-03-01T07:26:05;25.27;;;15.40;;
16828;SDS011;8531;48.078;11.968;2023-03-01T07:28:30;20.43;;;14.00;;
16828;SDS011;8531;48.078;11.968;2023-03-01T07:31:01;23.63;;;15.10;;
16828;SDS011;8531;48.078;11.968;2023-03-01T07:33:27;25.67;;;14.57;;
16828;SDS011;8531;48.078;11.968;2023-03-01T07:35:57;27.77;;;15.17;;
16828;SDS011;8531;48.078;11.968;2023-03-01T07:38:23;20.93;;;14.67;;
16828;SDS011;8531;48.078;11.968;2023-03-01T07:40:49;39.07;;;15.33;;
16828;SDS011;8531;48.078;11.968;2023-03-01T07:43:15;32.63;;;15.67;;
16828;SDS011;8531;48.078;11.968;2023-03-01T07:45:40;20.53;;;13.50;;
16828;SDS011;8531;48.078;11.968;2023-03-01T07:48:06;20.50;;;14.17;;
16828;SDS011;8531;48.078;11.968;2023-03-01T07:50:32;20.37;;;14.60;;
16828;SDS011;8531;48.078;11.968;2023-03-01T07:52:57;22.97;;;15.80;;
16828;SDS011;8531;48.078;11.968;2023-03-01T07:55:23;24.83;;;14.90;;
16828;SDS011;8531;48.078;11.968;2023-03-01T07:57:49;21.30;;;15.37;;
16828;SDS011;8531;48.078;11.968;2023-03-01T08:00:15;23.63;;;14.73;;
16828;SDS011;8531;48.078;11.968;2023-03-01T08:02:41;26.40;;;15.30;;
16828;SDS011;8531;48.078;11.968;2023-03-01T08:05:07;22.97;;;16.07;;
16828;SDS011;8531;48.078;11.968;2023-03-01T08:07:34;22.53;;;14.30;;
16828;SDS011;8531;48.078;11.968;2023-03-01T08:10:00;25.00;;;15.53;;
16828;SDS011;8531;48.078;11.968;2023-03-01T08:12:26;21.60;;;15.33;;
16828;SDS011;8531;48.078;11.968;2023-03-01T08:14:53;19.00;;;14.37;;
16828;SDS011;8531;48.078;11.968;2023-03-01T08:17:19;23.00;;;14.20;;
16828;SDS011;8531;48.078;11.968;2023-03-01T08:19:44;28.30;;;15.73;;
16828;SDS011;8531;48.078;11.968;2023-03-01T08:22:11;21.20;;;13.87;;
16828;SDS011;8531;48.078;11.968;2023-03-01T08:24:36;20.77;;;14.63;;
16828;SDS011;8531;48.078;11.968;2023-03-01T08:27:02;19.57;;;14.57;;
16828;SDS011;8531;48.078;11.968;2023-03-01T08:29:30;21.77;;;14.73;;
16828;SDS011;8531;48.078;11.968;2023-03-01T08:31:56;30.53;;;15.03;;
16828;SDS011;8531;48.078;11.968;2023-03-01T08:34:22;20.47;;;14.30;;
16828;SDS011;8531;48.078;11.968;2023-03-01T08:36:47;20.87;;;14.57;;
16828;SDS011;8531;48.078;11.968;2023-03-01T08:39:15;20.23;;;14.07;;
16828;SDS011;8531;48.078;11.968;2023-03-01T08:41:42;20.47;;;14.50;;
16828;SDS011;8531;48.078;11.968;2023-03-01T08:44:09;27.67;;;15.10;;
16828;SDS011;8531;48.078;11.968;2023-03-01T08:46:37;25.50;;;15.07;;
16828;SDS011;8531;48.078;11.968;2023-03-01T08:49:12;23.67;;;15.63;;
16828;SDS011;8531;48.078;11.968;2023-03-01T08:51:40;18.33;;;13.53;;
16828;SDS011;8531;48.078;11.968;2023-03-01T08:54:09;19.63;;;14.00;;
16828;SDS011;8531;48.078;11.968;2023-03-01T08:56:37;24.27;;;15.53;;
16828;SDS011;8531;48.078;11.968;2023-03-01T08:59:03;23.17;;;14.83;;
16828;SDS011;8531;48.078;11.968;2023-03-01T09:01:29;20.30;;;14.43;;
16828;SDS011;8531;48.078;11.968;2023-03-01T09:03:54;19.67;;;14.00;;
16828;SDS011;8531;48.078;11.968;2023-03-01T09:06:20;22.13;;;14.53;;
16828;SDS011;8531;48.078;11.968;2023-03-01T09:08:47;38.13;;;15.70;;
16828;SDS011;8531;48.078;11.968;2023-03-01T09:11:15;31.33;;;14.83;;
16828;SDS011;8531;48.078;11.968;2023-03-01T09:13:43;35.37;;;14.47;;
16828;SDS011;8531;48.078;11.968;2023-03-01T09:16:11;24.67;;;15.03;;
16828;SDS011;8531;48.078;11.968;2023-03-01T09:18:38;18.90;;;13.70;;
16828;SDS011;8531;48.078;11.968;2023-03-01T09:21:04;21.37;;;13.60;;
16828;SDS011;8531;48.078;11.968;2023-03-01T09:23:32;19.07;;;14.37;;
16828;SDS011;8531;48.078;11.968;2023-03-01T09:26:04;21.77;;;15.17;;
16828;SDS011;8531;48.078;11.968;2023-03-01T09:28:44;18.80;;;13.13;;
16828;SDS011;8531;48.078;11.968;2023-03-01T09:31:13;20.83;;;14.70;;
16828;SDS011;8531;48.078;11.968;2023-03-01T09:33:40;24.13;;;14.23;;
16828;SDS011;8531;48.078;11.968;2023-03-01T09:36:07;21.87;;;15.27;;
16828;SDS011;8531;48.078;11.968;2023-03-01T09:38:38;20.50;;;14.60;;
16828;SDS011;8531;48.078;11.968;2023-03-01T09:41:09;23.40;;;14.27;;
16828;SDS011;8531;48.078;11.968;2023-03-01T09:46:11;21.10;;;14.40;;
16828;SDS011;8531;48.078;11.968;2023-03-01T09:48:46;21.77;;;15.43;;
16828;SDS011;8531;48.078;11.968;2023-03-01T09:51:26;22.13;;;14.43;;
16828;SDS011;8531;48.078;11.968;2023-03-01T09:53:56;38.70;;;31.60;;
16828;SDS011;8531;48.078;11.968;2023-03-01T09:56:32;25.13;;;19.13;;
16828;SDS011;8531;48.078;11.968;2023-03-01T10:07:32;22.33;;;16.10;;
16828;SDS011;8531;48.078;11.968;2023-03-01T10:10:10;21.20;;;15.70;;
16828;SDS011;8531;48.078;11.968;2023-03-01T10:13:21;21.37;;;15.83;;
16828;SDS011;8531;48.078;11.968;2023-03-01T10:16:33;23.33;;;15.30;;
16828;SDS011;8531;48.078;11.968;2023-03-01T10:18:53;22.10;;;16.10;;
16828;SDS011;8531;48.078;11.968;2023-03-01T10:21:23;37.50;;;17.83;;
16828;SDS011;8531;48.078;11.968;2023-03-01T10:23:49;24.83;;;16.97;;
16828;SDS011;8531;48.078;11.968;2023-03-01T10:29:12;19.00;;;14.47;;
16828;SDS011;8531;48.078;11.968;2023-03-01T10:34:14;20.47;;;15.50;;
16828;SDS011;8531;48.078;11.968;2023-03-01T10:36:43;23.37;;;15.33;;
16828;SDS011;8531;48.078;11.968;2023-03-01T10:39:14;23.40;;;14.20;;
16828;SDS011;8531;48.078;11.968;2023-03-01T10:41:52;21.57;;;15.47;;
16828;SDS011;8531;48.078;11.968;2023-03-01T10:44:40;22.92;;;15.02;;
16828;SDS011;8531;48.078;11.968;2023-03-01T10:47:14;22.80;;;15.13;;
16828;SDS011;8531;48.078;11.968;2023-03-01T10:49:49;20.80;;;15.60;;
16828;SDS011;8531;48.078;11.968;2023-03-01T10:52:25;24.70;;;16.43;;
16828;SDS011;8531;48.078;11.968;2023-03-01T10:54:58;20.23;;;14.43;;
16828;SDS011;8531;48.078;11.968;2023-03-01T10:57:38;22.87;;;15.17;;
16828;SDS011;8531;48.078;11.968;2023-03-01T11:00:19;23.65;;;15.73;;
16828;SDS011;8531;48.078;11.968;2023-03-01T11:05:34;20.95;;;15.30;;
16828;SDS011;8531;48.078;11.968;2023-03-01T11:08:01;26.92;;;17.15;;
16828;SDS011;8531;48.078;11.968;2023-03-01T11:10:29;34.07;;;16.47;;
16828;SDS011;8531;48.078;11.968;2023-03-01T11:13:13;24.05;;;17.45;;
16828;SDS011;8531;48.078;11.968;2023-03-01T11:15:42;25.77;;;15.70;;
16828;SDS011;8531;48.078;11.968;2023-03-01T11:18:21;22.27;;;16.65;;
16828;SDS011;8531;48.078;11.968;2023-03-01T11:20:48;22.75;;;15.73;;
16828;SDS011;8531;48.078;11.968;2023-03-01T11:23:16;25.52;;;19.00;;
16828;SDS011;8531;48.078;11.968;2023-03-01T11:25:46;25.05;;;16.40;;
16828;SDS011;8531;48.078;11.968;2023-03-01T11:28:24;21.50;;;16.55;;
16828;SDS011;8531;48.078;11.968;2023-03-01T11:30:56;25.08;;;15.57;;
16828;SDS011;8531;48.078;11.968;2023-03-01T11:36:36;19.83;;;15.02;;
16828;SDS011;8531;48.078;11.968;2023-03-01T11:39:28;21.45;;;14.88;;
16828;SDS011;8531;48.078;11.968;2023-03-01T11:42:25;21.10;;;15.25;;
16828;SDS011;8531;48.078;11.968;2023-03-01T11:45:08;18.02;;;14.63;;
16828;SDS011;8531;48.078;11.968;2023-03-01T11:50:41;24.17;;;16.90;;
16828;SDS011;8531;48.078;11.968;2023-03-01T11:53:24;19.23;;;14.95;;
16828;SDS011;8531;48.078;11.968;2023-03-01T11:56:00;20.08;;;15.13;;
16828;SDS011;8531;48.078;11.968;2023-03-01T12:07:10;17.50;;;13.70;;
16828;SDS011;8531;48.078;11.968;2023-03-01T12:12:29;20.70;;;14.88;;
16828;SDS011;8531;48.078;11.968;2023-03-01T12:15:51;20.23;;;14.50;;
16828;SDS011;8531;48.078;11.968;2023-03-01T12:18:21;21.27;;;14.93;;
16828;SDS011;8531;48.078;11.968;2023-03-01T12:20:58;16.58;;;14.57;;
16828;SDS011;8531;48.078;11.968;2023-03-01T12:26:36;19.67;;;15.23;;
16828;SDS011;8531;48.078;11.968;2023-03-01T12:29:25;18.73;;;15.82;;
16828;SDS011;8531;48.078;11.968;2023-03-01T12:35:05;24.95;;;16.08;;
16828;SDS011;8531;48.078;11.968;2023-03-01T12:38:01;17.20;;;14.82;;
16828;SDS011;8531;48.078;11.968;2023-03-01T12:43:16;17.55;;;14.90;;
16828;SDS011;8531;48.078;11.968;2023-03-01T12:51:20;20.70;;;15.63;;
16828;SDS011;8531;48.078;11.968;2023-03-01T12:53:50;20.95;;;15.35;;
16828;SDS011;8531;48.078;11.968;2023-03-01T12:56:22;25.83;;;16.63;;
16828;SDS011;8531;48.078;11.968;2023-03-01T13:01:31;23.08;;;15.80;;
16828;SDS011;8531;48.078;11.968;2023-03-01T13:04:05;19.52;;;15.73;;
16828;SDS011;8531;48.078;11.968;2023-03-01T13:09:23;19.52;;;16.52;;
16828;SDS011;8531;48.078;11.968;2023-03-01T13:12:02;20.63;;;16.60;;
16828;SDS011;8531;48.078;11.968;2023-03-01T13:14:37;21.63;;;15.95;;
16828;SDS011;8531;48.078;11.968;2023-03-01T13:17:29;18.92;;;15.38;;
16828;SDS011;8531;48.078;11.968;2023-03-01T13:19:58;20.42;;;15.63;;
16828;SDS011;8531;48.078;11.968;2023-03-01T13:22:31;23.80;;;16.45;;
16828;SDS011;8531;48.078;11.968;2023-03-01T13:25:02;23.75;;;16.17;;
16828;SDS011;8531;48.078;11.968;2023-03-01T13:27:39;26.00;;;16.85;;
16828;SDS011;8531;48.078;11.968;2023-03-01T13:30:12;24.42;;;16.38;;
16828;SDS011;8531;48.078;11.968;2023-03-01T13:35:52;24.40;;;15.95;;
16828;SDS011;8531;48.078;11.968;2023-03-01T13:38:44;19.13;;;16.92;;
16828;SDS011;8531;48.078;11.968;2023-03-01T13:41:11;19.13;;;15.88;;
16828;SDS011;8531;48.078;11.968;2023-03-01T13:43:39;18.17;;;15.75;;
16828;SDS011;8531;48.078;11.968;2023-03-01T13:46:09;26.50;;;18.40;;
16828;SDS011;8531;48.078;11.968;2023-03-01T13:48:56;22.10;;;16.48;;
16828;SDS011;8531;48.078;11.968;2023-03-01T13:51:26;29.23;;;17.70;;
16828;SDS011;8531;48.078;11.968;2023-03-01T13:53:53;22.45;;;15.73;;
16828;SDS011;8531;48.078;11.968;2023-03-01T13:56:27;17.77;;;15.60;;
16828;SDS011;8531;48.078;11.968;2023-03-01T13:58:59;20.88;;;16.45;;
16828;SDS011;8531;48.078;11.968;2023-03-01T14:01:30;22.15;;;16.77;;
16828;SDS011;8531;48.078;11.968;2023-03-01T14:03:59;22.08;;;17.13;;
16828;SDS011;8531;48.078;11.968;2023-03-01T14:06:29;20.05;;;16.13;;
16828;SDS011;8531;48.078;11.968;2023-03-01T14:19:27;21.35;;;15.52;;
16828;SDS011;8531;48.078;11.968;2023-03-01T14:24:48;20.40;;;15.40;;
16828;SDS011;8531;48.078;11.968;2023-03-01T14:27:20;21.25;;;14.60;;
16828;SDS011;8531;48.078;11.968;2023-03-01T14:29:56;21.88;;;16.55;;
16828;SDS011;8531;48.078;11.968;2023-03-01T14:32:24;18.95;;;14.30;;
16828;SDS011;8531;48.078;11.968;2023-03-01T14:34:51;20.25;;;15.20;;
16828;SDS011;8531;48.078;11.968;2023-03-01T14:39:46;29.90;;;16.30;;
16828;SDS011;8531;48.078;11.968;2023-03-01T14:42:12;19.77;;;14.52;;
16828;SDS011;8531;48.078;11.968;2023-03-01T14:44:41;21.77;;;15.38;;
16828;SDS011;8531;48.078;11.968;2023-03-01T14:47:22;18.50;;;14.73;;
16828;SDS011;8531;48.078;11.968;2023-03-01T14:50:00;20.50;;;15.23;;
16828;SDS011;8531;48.078;11.968;2023-03-01T14:52:39;20.05;;;14.60;;
16828;SDS011;8531;48.078;11.968;2023-03-01T14:55:16;22.63;;;14.43;;
16828;SDS011;8531;48.078;11.968;2023-03-01T14:57:50;20.02;;;15.10;;
16828;SDS011;8531;48.078;11.968;2023-03-01T15:00:21;19.50;;;15.30;;
16828;SDS011;8531;48.078;11.968;2023-03-01T15:02:53;20.33;;;14.50;;
16828;SDS011;8531;48.078;11.968;2023-03-01T15:05:27;20.83;;;14.75;;
16828;SDS011;8531;48.078;11.968;2023-03-01T15:07:56;18.15;;;14.25;;
16828;SDS011;8531;48.078;11.968;2023-03-01T15:10:26;26.48;;;14.82;;
16828;SDS011;8531;48.078;11.968;2023-03-01T15:12:53;16.65;;;13.05;;
16828;SDS011;8531;48.078;11.968;2023-03-01T15:15:38;17.50;;;13.27;;
16828;SDS011;8531;48.078;11.968;2023-03-01T15:18:14;19.65;;;14.55;;
16828;SDS011;8531;48.078;11.968;2023-03-01T15:20:46;16.17;;;13.55;;
16828;SDS011;8531;48.078;11.968;2023-03-01T15:23:25;19.73;;;13.98;;
16828;SDS011;8531;48.078;11.968;2023-03-01T15:25:53;17.33;;;14.20;;
16828;SDS011;8531;48.078;11.968;2023-03-01T15:28:22;17.60;;;12.88;;
16828;SDS011;8531;48.078;11.968;2023-03-01T15:30:58;20.55;;;13.77;;
16828;SDS011;8531;48.078;11.968;2023-03-01T15:33:44;23.27;;;14.20;;
16828;SDS011;8531;48.078;11.968;2023-03-01T15:38:57;32.20;;;15.20;;
16828;SDS011;8531;48.078;11.968;2023-03-01T15:41:32;23.30;;;13.90;;
16828;SDS011;8531;48.078;11.968;2023-03-01T15:44:17;33.20;;;15.05;;
16828;SDS011;8531;48.078;11.968;2023-03-01T15:46:53;17.58;;;13.38;;
16828;SDS011;8531;48.078;11.968;2023-03-01T15:49:25;23.83;;;15.68;;
16828;SDS011;8531;48.078;11.968;2023-03-01T15:51:55;20.63;;;13.90;;
16828;SDS011;8531;48.078;11.968;2023-03-01T15:54:22;19.00;;;13.68;;
16828;SDS011;8531;48.078;11.968;2023-03-01T15:56:50;21.77;;;12.93;;
16828;SDS011;8531;48.078;11.968;2023-03-01T15:59:16;16.75;;;12.73;;
16828;SDS011;8531;48.078;11.968;2023-03-01T16:01:43;20.52;;;12.77;;
16828;SDS011;8531;48.078;11.968;2023-03-01T16:04:10;15.38;;;11.52;;
16828;SDS011;8531;48.078;11.968;2023-03-01T16:06:46;22.58;;;17.13;;
16828;SDS011;8531;48.078;11.968;2023-03-01T16:09:21;24.20;;;16.70;;
16828;SDS011;8531;48.078;11.968;2023-03-01T16:11:48;34.47;;;18.90;;